Broaddus, Texas
Current Conditions -  °F | °C
As of 9:53 PM on Saturday 22 Nov 2014 (Local Time) from KLFK Reporting Station
Light Rain Light Rain  
Wind Chill: 68°   Ceiling: 1000
Heat Index: 68°   Visibility: 7mi
Dew Point: 63°   Wind: 7mph
Humidity: 84%   Direction: 180°S
Pressure: 29.8"   Gusts: NA
Location:  31.31°N, 94.27°W
Report Text: KLFK 230353Z AUTO 18006KT 7SM -RA BKN010 OVC016 20/17 A2980 RMK AO2 PK WND 11028/0307 WSHFT 0305 SLP086 P0028 T02000172
Loading
Personal Weather Stations






























Interactive Weather Map New forecast layout! Learn more

10-Day Weather Forecast

Advertisements
Track Severe Weather on mobile